Time;durP1;ratioP1;P1;durP2;ratioP2;P2;SDS_P1;SDS_P2;PMS_P1;PMS_P2;Temp;Humidity;BMP_temperature;BMP_pressure;BME280_temperature;BME280_humidity;BME280_pressure;Samples;Min_cycle;Max_cycle;Signal;HPM_P1;HPM_P2
2021/07/06 00:01:52;;;;;;;2.20;1.43;;;;;;;;;;5079785;28;20704;-65
2021/07/06 00:04:20;;;;;;;1.20;1.20;;;;;;;;;;5079382;28;20220;-66
2021/07/06 00:06:48;;;;;;;1.90;1.20;;;;;;;;;;5079866;28;20663;-66
2021/07/06 00:09:17;;;;;;;1.00;1.00;;;;;;;;;;5079482;28;20202;-66
2021/07/06 00:11:45;;;;;;;1.57;1.47;;;;;;;;;;5078898;28;20706;-65
2021/07/06 00:14:13;;;;;;;1.23;1.13;;;;;;;;;;5079234;28;20303;-65
2021/07/06 00:16:40;;;;;;;4.70;1.53;;;;;;;;;;5079185;28;20238;-66
2021/07/06 00:19:08;;;;;;;2.67;1.37;;;;;;;;;;5079337;28;20258;-65
2021/07/06 00:21:36;;;;;;;1.13;1.03;;;;;;;;;;5079083;28;20225;-65
2021/07/06 00:24:03;;;;;;;2.03;1.10;;;;;;;;;;5079619;28;20209;-66
2021/07/06 00:26:32;;;;;;;1.23;1.23;;;;;;;;;;5079076;28;20210;-65
2021/07/06 00:29:00;;;;;;;0.87;0.87;;;;;;;;;;5079389;28;20255;-65
2021/07/06 00:31:28;;;;;;;0.90;0.90;;;;;;;;;;5079313;28;20626;-65
2021/07/06 00:33:56;;;;;;;1.63;0.93;;;;;;;;;;5079109;28;20241;-65
2021/07/06 00:36:23;;;;;;;1.40;1.30;;;;;;;;;;5079026;28;20229;-66
2021/07/06 00:38:51;;;;;;;1.23;1.00;;;;;;;;;;5079071;28;20225;-65
2021/07/06 00:41:19;;;;;;;1.60;1.07;;;;;;;;;;5078624;28;20257;-65
2021/07/06 00:43:48;;;;;;;1.00;0.90;;;;;;;;;;5078780;28;20213;-66
2021/07/06 00:46:16;;;;;;;1.40;0.90;;;;;;;;;;5079051;28;20208;-66
2021/07/06 00:48:43;;;;;;;1.13;1.03;;;;;;;;;;5079244;28;20251;-65
2021/07/06 00:51:11;;;;;;;0.77;0.77;;;;;;;;;;5078910;28;20599;-65
2021/07/06 00:53:39;;;;;;;3.43;1.10;;;;;;;;;;5079013;28;20672;-66
2021/07/06 00:56:06;;;;;;;1.10;1.00;;;;;;;;;;5078866;28;20217;-65
2021/07/06 00:58:34;;;;;;;2.13;1.10;;;;;;;;;;5077962;28;20226;-65
2021/07/06 01:01:13;;;;;;;2.03;1.00;;;;;;;;;;5078193;28;20206;-65
2021/07/06 01:03:41;;;;;;;1.00;1.00;;;;;;;;;;5077959;28;20213;-65
2021/07/06 01:06:09;;;;;;;4.03;1.60;;;;;;;;;;5077456;28;20213;-65
2021/07/06 01:08:37;;;;;;;1.33;1.20;;;;;;;;;;5077403;28;20217;-65
2021/07/06 01:11:04;;;;;;;1.53;1.20;;;;;;;;;;5077102;28;20208;-65
2021/07/06 01:13:33;;;;;;;2.10;1.23;;;;;;;;;;5076910;28;20209;-65
2021/07/06 01:16:01;;;;;;;1.20;1.10;;;;;;;;;;5077930;28;20659;-65
2021/07/06 01:18:30;;;;;;;1.00;1.00;;;;;;;;;;5078028;28;20235;-66
2021/07/06 01:20:58;;;;;;;1.43;1.33;;;;;;;;;;5078169;28;20206;-65
2021/07/06 01:23:29;;;;;;;1.50;1.40;;;;;;;;;;5078184;28;20209;-65
2021/07/06 01:25:58;;;;;;;1.30;1.20;;;;;;;;;;5078207;28;20213;-66
2021/07/06 01:28:26;;;;;;;1.87;1.53;;;;;;;;;;5077787;28;20213;-66
2021/07/06 01:30:54;;;;;;;1.40;1.30;;;;;;;;;;5077951;28;20210;-66
2021/07/06 01:33:23;;;;;;;2.97;1.60;;;;;;;;;;5077949;28;20705;-65
2021/07/06 01:35:51;;;;;;;5.03;1.60;;;;;;;;;;5077916;28;20660;-65
2021/07/06 01:38:19;;;;;;;2.13;1.67;;;;;;;;;;5077846;28;20209;-65
2021/07/06 01:40:48;;;;;;;4.53;2.23;;;;;;;;;;5076350;28;20242;-65
2021/07/06 01:43:16;;;;;;;2.67;1.80;;;;;;;;;;5075162;28;20229;-66
2021/07/06 01:45:44;;;;;;;1.57;1.47;;;;;;;;;;5077693;28;20200;-65
2021/07/06 01:48:12;;;;;;;3.87;1.87;;;;;;;;;;5077138;28;20664;-66
2021/07/06 01:50:41;;;;;;;2.00;1.80;;;;;;;;;;5077145;28;20197;-66
2021/07/06 01:53:10;;;;;;;2.67;1.77;;;;;;;;;;5077324;28;20239;-65
2021/07/06 01:55:38;;;;;;;1.57;1.50;;;;;;;;;;5077176;28;20266;-65
2021/07/06 01:58:08;;;;;;;3.60;2.10;;;;;;;;;;5076876;28;20606;-65
2021/07/06 02:00:36;;;;;;;2.73;1.90;;;;;;;;;;5077268;28;20249;-66
2021/07/06 02:03:05;;;;;;;2.20;2.00;;;;;;;;;;5076989;28;20224;-65
2021/07/06 02:05:34;;;;;;;2.97;2.10;;;;;;;;;;5076967;28;20204;-66
2021/07/06 02:08:02;;;;;;;3.60;1.93;;;;;;;;;;5076940;28;20209;-65
2021/07/06 02:10:30;;;;;;;2.60;2.00;;;;;;;;;;5077395;28;20651;-66
2021/07/06 02:12:58;;;;;;;4.67;2.30;;;;;;;;;;5077136;28;20221;-65
2021/07/06 02:15:28;;;;;;;4.03;3.23;;;;;;;;;;5077246;28;20288;-66
2021/07/06 02:17:56;;;;;;;2.33;2.10;;;;;;;;;;5078221;28;20206;-66
2021/07/06 02:20:24;;;;;;;3.50;2.17;;;;;;;;;;5077487;28;20249;-65
2021/07/06 02:22:52;;;;;;;5.67;2.27;;;;;;;;;;5077682;28;20634;-66
2021/07/06 02:25:20;;;;;;;2.77;2.13;;;;;;;;;;5077651;28;20240;-66
2021/07/06 02:27:48;;;;;;;2.27;2.07;;;;;;;;;;5077190;28;20206;-66
2021/07/06 02:30:17;;;;;;;5.47;2.33;;;;;;;;;;5077667;28;20230;-65
2021/07/06 02:32:46;;;;;;;5.53;2.27;;;;;;;;;;5077387;28;20244;-65
2021/07/06 02:35:14;;;;;;;12.50;7.60;;;;;;;;;;5077259;28;20202;-66
2021/07/06 02:37:42;;;;;;;15.90;7.83;;;;;;;;;;5077133;28;20680;-66
2021/07/06 02:40:12;;;;;;;5.33;3.23;;;;;;;;;;5076698;28;20240;-65
2021/07/06 02:42:41;;;;;;;7.27;4.57;;;;;;;;;;5076740;28;20230;-66
2021/07/06 02:45:09;;;;;;;3.37;3.07;;;;;;;;;;5076939;28;20209;-65
2021/07/06 02:47:37;;;;;;;5.07;2.37;;;;;;;;;;5077157;28;20214;-65
2021/07/06 02:50:08;;;;;;;4.90;2.03;;;;;;;;;;5076965;28;20271;-66
2021/07/06 02:52:35;;;;;;;4.37;2.30;;;;;;;;;;5077167;28;20634;-66
2021/07/06 02:55:04;;;;;;;2.73;2.07;;;;;;;;;;5077466;28;20209;-65
2021/07/06 02:57:38;;;;;;;3.97;2.20;;;;;;;;;;5077070;28;20210;-65
2021/07/06 03:00:11;;;;;;;3.10;2.00;;;;;;;;;;5077477;28;20237;-66
2021/07/06 03:02:39;;;;;;;2.67;2.00;;;;;;;;;;5080226;28;20230;-65
2021/07/06 03:05:09;;;;;;;2.27;1.90;;;;;;;;;;5080770;28;20601;-65
2021/07/06 03:07:37;;;;;;;2.17;2.07;;;;;;;;;;5080143;28;20203;-66
2021/07/06 03:10:06;;;;;;;2.50;1.90;;;;;;;;;;5079502;28;20246;-66
2021/07/06 03:12:33;;;;;;;2.67;2.13;;;;;;;;;;5079096;28;20697;-66
2021/07/06 03:15:01;;;;;;;2.27;2.10;;;;;;;;;;5079832;28;20236;-65
2021/07/06 03:17:29;;;;;;;2.30;1.97;;;;;;;;;;5080077;28;20242;-66
2021/07/06 03:19:57;;;;;;;2.30;2.10;;;;;;;;;;5080080;28;20321;-65
2021/07/06 03:22:26;;;;;;;2.17;2.07;;;;;;;;;;5079943;28;20580;-66
2021/07/06 03:24:53;;;;;;;2.30;2.10;;;;;;;;;;5080264;28;20307;-65
2021/07/06 03:27:21;;;;;;;2.40;2.07;;;;;;;;;;5079871;28;20712;-66
2021/07/06 03:29:49;;;;;;;2.40;2.20;;;;;;;;;;5080500;28;20204;-66
2021/07/06 03:32:17;;;;;;;2.27;1.97;;;;;;;;;;5080209;28;20246;-65
2021/07/06 03:34:46;;;;;;;2.77;2.20;;;;;;;;;;5080378;28;20217;-65
2021/07/06 03:37:13;;;;;;;4.40;2.33;;;;;;;;;;5080224;28;20214;-66
2021/07/06 03:39:42;;;;;;;4.50;2.27;;;;;;;;;;5079977;28;20254;-66
2021/07/06 03:42:11;;;;;;;2.90;1.93;;;;;;;;;;5079819;28;20221;-65
2021/07/06 03:44:39;;;;;;;2.63;2.43;;;;;;;;;;5080171;28;20272;-65
2021/07/06 03:47:07;;;;;;;2.67;2.30;;;;;;;;;;5080059;28;20210;-65
2021/07/06 03:49:35;;;;;;;2.33;2.10;;;;;;;;;;5079984;28;20837;-65
2021/07/06 03:52:03;;;;;;;3.30;2.10;;;;;;;;;;5079740;28;20232;-65
2021/07/06 03:54:31;;;;;;;4.40;2.23;;;;;;;;;;5079816;28;20212;-65
2021/07/06 03:57:00;;;;;;;2.90;2.57;;;;;;;;;;5079508;28;20651;-66
2021/07/06 03:59:28;;;;;;;3.03;2.20;;;;;;;;;;5079944;28;20212;-65
2021/07/06 04:01:56;;;;;;;4.27;2.27;;;;;;;;;;5079546;28;20661;-66
2021/07/06 04:04:24;;;;;;;3.30;2.03;;;;;;;;;;5079482;28;20289;-65
2021/07/06 04:06:52;;;;;;;2.73;2.50;;;;;;;;;;5079739;28;20244;-65
2021/07/06 04:09:20;;;;;;;3.00;2.70;;;;;;;;;;5079416;28;20259;-65
2021/07/06 04:11:47;;;;;;;2.63;2.43;;;;;;;;;;5077601;28;20274;-65
2021/07/06 04:14:16;;;;;;;5.37;2.73;;;;;;;;;;5078923;28;20282;-65
2021/07/06 04:16:44;;;;;;;3.70;2.23;;;;;;;;;;5075760;28;20198;-65
2021/07/06 04:19:12;;;;;;;2.40;2.20;;;;;;;;;;5077420;28;20201;-65
2021/07/06 04:21:40;;;;;;;3.70;2.60;;;;;;;;;;5077959;28;20222;-64
2021/07/06 04:24:07;;;;;;;2.90;2.60;;;;;;;;;;5077874;28;20615;-66
2021/07/06 04:26:35;;;;;;;2.87;2.67;;;;;;;;;;5072898;28;20203;-65
2021/07/06 04:29:03;;;;;;;3.70;2.30;;;;;;;;;;5072746;28;20205;-65
2021/07/06 04:31:32;;;;;;;2.87;2.50;;;;;;;;;;5074226;28;20244;-65
2021/07/06 04:34:00;;;;;;;5.43;2.63;;;;;;;;;;5056885;28;20213;-65
2021/07/06 04:36:28;;;;;;;6.87;2.80;;;;;;;;;;5056389;28;20195;-66
2021/07/06 04:38:58;;;;;;;2.83;2.30;;;;;;;;;;5059111;28;20202;-66
2021/07/06 04:41:27;;;;;;;4.93;2.60;;;;;;;;;;5058974;28;20229;-66
2021/07/06 04:43:56;;;;;;;4.83;2.87;;;;;;;;;;5056839;28;20214;-66
2021/07/06 04:46:24;;;;;;;3.80;2.37;;;;;;;;;;5048448;28;20206;-66
2021/07/06 04:48:55;;;;;;;4.00;2.67;;;;;;;;;;5057814;28;20218;-69
2021/07/06 04:51:24;;;;;;;6.83;2.90;;;;;;;;;;5057660;28;20225;-66
2021/07/06 04:53:53;;;;;;;3.37;2.67;;;;;;;;;;5057567;28;20559;-66
2021/07/06 04:56:24;;;;;;;5.33;2.90;;;;;;;;;;5056685;28;20244;-66
2021/07/06 04:58:52;;;;;;;3.87;2.80;;;;;;;;;;5057408;28;20214;-66
2021/07/06 05:01:20;;;;;;;3.90;2.67;;;;;;;;;;5054832;28;20281;-66
2021/07/06 05:03:49;;;;;;;3.33;2.80;;;;;;;;;;5057547;28;20297;-66
2021/07/06 05:06:18;;;;;;;7.50;2.60;;;;;;;;;;5057700;28;20216;-66
2021/07/06 05:08:46;;;;;;;3.70;2.60;;;;;;;;;;5057970;28;20695;-66
2021/07/06 05:11:14;;;;;;;3.70;2.93;;;;;;;;;;5057508;28;20610;-66
2021/07/06 05:13:42;;;;;;;4.57;2.30;;;;;;;;;;5057918;28;20652;-66
2021/07/06 05:16:10;;;;;;;3.53;2.70;;;;;;;;;;5056622;28;20564;-66
2021/07/06 05:18:38;;;;;;;3.93;2.90;;;;;;;;;;5057514;28;20206;-66
2021/07/06 05:21:05;;;;;;;5.47;3.10;;;;;;;;;;5057036;28;20233;-66
2021/07/06 05:23:35;;;;;;;5.87;2.73;;;;;;;;;;5057283;28;20213;-66
2021/07/06 05:26:02;;;;;;;15.23;4.07;;;;;;;;;;5056928;28;20210;-66
2021/07/06 05:28:30;;;;;;;8.10;2.97;;;;;;;;;;5057109;28;20217;-65
2021/07/06 05:30:58;;;;;;;4.13;3.30;;;;;;;;;;5056990;28;20244;-66
2021/07/06 05:33:25;;;;;;;4.17;2.77;;;;;;;;;;5069264;28;20248;-65
2021/07/06 05:35:53;;;;;;;5.63;3.17;;;;;;;;;;5073049;28;20208;-65
2021/07/06 05:38:21;;;;;;;4.03;3.00;;;;;;;;;;5073229;28;20603;-66
2021/07/06 05:41:03;;;;;;;3.23;2.97;;;;;;;;;;5073690;28;20591;-64
2021/07/06 05:43:31;;;;;;;3.47;2.83;;;;;;;;;;5075772;28;20203;-64
2021/07/06 05:45:58;;;;;;;6.53;2.97;;;;;;;;;;5073463;28;20213;-64
2021/07/06 05:48:27;;;;;;;4.03;2.70;;;;;;;;;;5073206;28;20201;-64
2021/07/06 05:50:54;;;;;;;3.33;2.70;;;;;;;;;;5072008;28;20207;-64
2021/07/06 05:53:22;;;;;;;5.00;2.97;;;;;;;;;;5072635;28;20238;-64
2021/07/06 05:55:50;;;;;;;3.97;2.67;;;;;;;;;;5077465;28;20212;-64
2021/07/06 05:58:19;;;;;;;5.57;3.43;;;;;;;;;;5077764;28;20202;-64
2021/07/06 06:00:46;;;;;;;4.77;2.70;;;;;;;;;;5078844;28;20235;-65
2021/07/06 06:03:14;;;;;;;7.40;2.90;;;;;;;;;;5078647;28;20222;-64
2021/07/06 06:05:42;;;;;;;5.87;2.97;;;;;;;;;;5078201;28;20284;-66
2021/07/06 06:08:10;;;;;;;3.03;2.40;;;;;;;;;;5077702;28;20263;-65
2021/07/06 06:10:37;;;;;;;4.13;2.63;;;;;;;;;;5077503;28;20210;-67
2021/07/06 06:13:05;;;;;;;3.43;2.50;;;;;;;;;;5076940;28;20272;-66
2021/07/06 06:15:34;;;;;;;3.67;2.40;;;;;;;;;;5077547;28;20294;-66
2021/07/06 06:18:02;;;;;;;7.77;3.40;;;;;;;;;;5077991;28;20217;-66
2021/07/06 06:20:30;;;;;;;4.63;2.07;;;;;;;;;;5077711;28;20202;-66
2021/07/06 06:22:57;;;;;;;4.40;2.67;;;;;;;;;;5077627;28;20755;-67
2021/07/06 06:25:25;;;;;;;5.77;2.27;;;;;;;;;;5077712;28;20206;-67
2021/07/06 06:27:54;;;;;;;4.70;3.30;;;;;;;;;;5077322;28;20267;-66
2021/07/06 06:30:21;;;;;;;6.90;1.80;;;;;;;;;;5077397;28;20267;-66
2021/07/06 06:32:54;;;;;;;7.53;2.50;;;;;;;;;;5075852;28;20685;-68
2021/07/06 06:35:22;;;;;;;3.00;2.37;;;;;;;;;;5069522;28;20210;-67
2021/07/06 06:37:51;;;;;;;8.47;4.87;;;;;;;;;;5076074;28;20207;-66
2021/07/06 06:40:18;;;;;;;4.13;2.40;;;;;;;;;;5079062;28;20198;-68
2021/07/06 06:42:46;;;;;;;3.23;2.37;;;;;;;;;;5071847;28;20276;-69
2021/07/06 06:45:14;;;;;;;2.60;2.27;;;;;;;;;;5077155;28;20619;-68
2021/07/06 06:47:42;;;;;;;3.70;2.20;;;;;;;;;;5073268;28;20235;-69
2021/07/06 06:50:13;;;;;;;3.97;2.47;;;;;;;;;;5078749;28;20259;-69
2021/07/06 06:52:41;;;;;;;2.67;1.90;;;;;;;;;;5074002;28;20215;-65
2021/07/06 06:55:10;;;;;;;6.53;2.10;;;;;;;;;;5073287;28;20594;-65
2021/07/06 06:57:38;;;;;;;4.30;2.97;;;;;;;;;;5075073;28;20578;-65
2021/07/06 07:00:08;;;;;;;4.33;2.33;;;;;;;;;;5072721;28;20269;-63
2021/07/06 07:02:38;;;;;;;3.50;2.70;;;;;;;;;;5073925;28;20638;-64
2021/07/06 07:05:06;;;;;;;3.13;2.00;;;;;;;;;;5073342;28;20285;-65
2021/07/06 07:07:36;;;;;;;4.07;2.20;;;;;;;;;;5072825;28;20229;-65
2021/07/06 07:10:04;;;;;;;3.20;2.90;;;;;;;;;;5071261;28;20258;-66
2021/07/06 07:12:33;;;;;;;5.30;2.93;;;;;;;;;;5072486;28;20218;-65
2021/07/06 07:15:01;;;;;;;3.70;2.37;;;;;;;;;;5072011;28;20202;-66
2021/07/06 07:17:29;;;;;;;6.17;2.47;;;;;;;;;;5074461;28;20206;-66
2021/07/06 07:19:56;;;;;;;5.40;2.57;;;;;;;;;;5071770;28;20214;-66
2021/07/06 07:22:24;;;;;;;5.50;2.40;;;;;;;;;;5073854;28;20284;-66
2021/07/06 07:24:53;;;;;;;4.50;2.00;;;;;;;;;;5072873;28;20206;-66
2021/07/06 07:27:21;;;;;;;2.60;2.40;;;;;;;;;;5069885;28;20206;-66
2021/07/06 07:29:48;;;;;;;2.23;2.00;;;;;;;;;;5073919;28;20210;-66
2021/07/06 07:32:16;;;;;;;7.47;2.47;;;;;;;;;;5077301;28;20639;-67
2021/07/06 07:34:44;;;;;;;3.20;2.07;;;;;;;;;;5076822;28;20279;-67
2021/07/06 07:37:12;;;;;;;6.80;4.10;;;;;;;;;;5078260;28;20615;-66
2021/07/06 07:39:42;;;;;;;5.20;2.43;;;;;;;;;;5076964;28;20201;-66
2021/07/06 07:42:11;;;;;;;4.93;2.47;;;;;;;;;;5076033;28;20226;-66
2021/07/06 07:44:39;;;;;;;2.87;2.53;;;;;;;;;;5074995;28;20206;-66
2021/07/06 07:47:06;;;;;;;4.67;2.60;;;;;;;;;;5077333;28;20205;-66
2021/07/06 07:49:34;;;;;;;4.47;2.67;;;;;;;;;;5078489;28;20206;-66
2021/07/06 07:52:02;;;;;;;2.90;2.30;;;;;;;;;;5075492;28;20229;-66
2021/07/06 07:54:29;;;;;;;3.93;2.50;;;;;;;;;;5067165;28;20206;-66
2021/07/06 07:56:58;;;;;;;2.20;1.80;;;;;;;;;;5073731;28;20221;-66
2021/07/06 07:59:27;;;;;;;2.33;1.83;;;;;;;;;;5072743;28;20730;-64
2021/07/06 08:01:54;;;;;;;3.53;2.10;;;;;;;;;;5073389;28;20230;-65
2021/07/06 08:04:22;;;;;;;2.60;1.70;;;;;;;;;;5072502;28;20294;-64
2021/07/06 08:06:50;;;;;;;4.57;2.07;;;;;;;;;;5072441;28;20620;-65
2021/07/06 08:09:17;;;;;;;3.53;2.00;;;;;;;;;;5073919;28;20206;-64
2021/07/06 08:11:45;;;;;;;2.20;1.93;;;;;;;;;;5073192;28;20228;-64
2021/07/06 08:14:13;;;;;;;2.53;1.70;;;;;;;;;;5073598;28;20541;-65
2021/07/06 08:16:42;;;;;;;2.13;1.60;;;;;;;;;;5070533;28;20210;-65
2021/07/06 08:19:10;;;;;;;2.30;1.60;;;;;;;;;;5068498;28;20206;-65
2021/07/06 08:21:38;;;;;;;3.53;1.87;;;;;;;;;;5070285;28;20265;-65
2021/07/06 08:24:05;;;;;;;5.33;2.10;;;;;;;;;;5073727;28;20273;-64
2021/07/06 08:26:35;;;;;;;3.40;1.60;;;;;;;;;;5072914;28;20208;-64
2021/07/06 08:29:03;;;;;;;3.33;1.50;;;;;;;;;;5073849;28;20207;-66
2021/07/06 08:31:31;;;;;;;6.30;2.07;;;;;;;;;;5071350;28;20232;-66
2021/07/06 08:34:00;;;;;;;4.27;1.87;;;;;;;;;;5075284;28;20203;-66
2021/07/06 08:36:28;;;;;;;5.00;2.30;;;;;;;;;;5076519;28;20231;-66
2021/07/06 08:38:56;;;;;;;5.57;2.50;;;;;;;;;;5076900;28;20218;-67
2021/07/06 08:41:24;;;;;;;5.17;2.40;;;;;;;;;;5074912;28;20233;-65
2021/07/06 08:43:51;;;;;;;3.03;2.10;;;;;;;;;;5076593;28;20252;-64
2021/07/06 08:46:20;;;;;;;5.37;2.40;;;;;;;;;;5076357;28;20203;-65
2021/07/06 08:48:50;;;;;;;2.20;1.50;;;;;;;;;;5070379;28;20692;-65
2021/07/06 08:51:20;;;;;;;2.57;1.90;;;;;;;;;;5075215;28;20224;-65
2021/07/06 08:53:48;;;;;;;5.37;2.10;;;;;;;;;;5063971;28;20210;-66
2021/07/06 08:56:15;;;;;;;4.63;2.60;;;;;;;;;;5074646;28;20201;-67
2021/07/06 08:58:44;;;;;;;4.80;2.17;;;;;;;;;;5065095;28;20249;-67
2021/07/06 09:01:12;;;;;;;5.93;2.27;;;;;;;;;;5074198;28;20319;-66
2021/07/06 09:03:53;;;;;;;4.20;2.10;;;;;;;;;;5069025;28;20275;-68
2021/07/06 09:06:22;;;;;;;2.50;2.03;;;;;;;;;;5070023;28;20211;-68
2021/07/06 09:08:53;;;;;;;5.65;2.65;;;;;;;;;;5071169;28;20429;-69
2021/07/06 09:11:21;;;;;;;4.07;2.00;;;;;;;;;;5069498;28;20218;-69
2021/07/06 09:13:49;;;;;;;1.67;1.57;;;;;;;;;;5072597;28;20665;-68
2021/07/06 09:16:20;;;;;;;3.63;1.87;;;;;;;;;;5073701;28;20324;-67
2021/07/06 09:18:48;;;;;;;6.20;2.63;;;;;;;;;;5072392;28;20207;-68
2021/07/06 09:21:17;;;;;;;3.27;2.00;;;;;;;;;;5073418;28;20222;-67
2021/07/06 09:23:48;;;;;;;1.80;1.70;;;;;;;;;;5073150;28;20214;-67
2021/07/06 09:26:18;;;;;;;2.73;1.83;;;;;;;;;;5073382;28;20237;-67
2021/07/06 09:28:46;;;;;;;1.93;1.80;;;;;;;;;;5075141;28;20205;-68
2021/07/06 09:31:18;;;;;;;2.00;1.60;;;;;;;;;;5074716;28;20205;-67
2021/07/06 09:34:03;;;;;;;3.33;2.13;;;;;;;;;;5075282;28;20637;-73
2021/07/06 09:36:32;;;;;;;8.20;2.57;;;;;;;;;;5072259;28;20198;-73
2021/07/06 09:39:04;;;;;;;3.37;1.90;;;;;;;;;;5070382;28;20198;-72
2021/07/06 09:41:32;;;;;;;2.27;2.07;;;;;;;;;;5070195;28;20686;-72
2021/07/06 09:44:16;;;;;;;3.67;1.90;;;;;;;;;;5070568;28;20279;-72
2021/07/06 09:46:48;;;;;;;4.10;2.13;;;;;;;;;;5067701;28;20199;-71
2021/07/06 09:49:18;;;;;;;2.63;1.90;;;;;;;;;;5070993;28;20193;-72
2021/07/06 09:51:55;;;;;;;2.87;1.73;;;;;;;;;;5070744;28;20305;-71
2021/07/06 09:54:28;;;;;;;3.87;2.50;;;;;;;;;;5072053;28;20194;-72
2021/07/06 09:57:06;;;;;;;3.37;1.87;;;;;;;;;;5072532;28;21483;-72
2021/07/06 09:59:33;;;;;;;2.33;1.60;;;;;;;;;;5071406;28;20247;-72
2021/07/06 10:02:03;;;;;;;1.93;1.63;;;;;;;;;;5069972;28;20267;-71
2021/07/06 10:04:33;;;;;;;3.93;1.83;;;;;;;;;;5071749;28;20226;-71
2021/07/06 10:07:01;;;;;;;2.53;1.50;;;;;;;;;;5070781;28;20256;-71
2021/07/06 10:09:30;;;;;;;2.20;1.73;;;;;;;;;;5074245;28;20214;-71
2021/07/06 10:11:58;;;;;;;1.70;1.40;;;;;;;;;;5072291;28;20229;-69
2021/07/06 10:14:27;;;;;;;1.50;1.40;;;;;;;;;;5071842;28;20663;-69
2021/07/06 10:16:55;;;;;;;4.27;1.60;;;;;;;;;;5072109;28;20228;-69
2021/07/06 10:19:23;;;;;;;1.50;1.40;;;;;;;;;;5072767;28;20243;-70
2021/07/06 10:21:51;;;;;;;5.30;1.70;;;;;;;;;;5075348;28;20219;-68
2021/07/06 10:24:19;;;;;;;1.67;1.50;;;;;;;;;;5074555;28;20271;-69
2021/07/06 10:26:49;;;;;;;1.97;1.70;;;;;;;;;;5073114;28;20212;-69
2021/07/06 10:29:30;;;;;;;1.97;1.63;;;;;;;;;;5071706;28;20213;-68
2021/07/06 10:31:58;;;;;;;1.97;1.33;;;;;;;;;;5071729;28;20243;-68
2021/07/06 10:34:28;;;;;;;2.37;1.63;;;;;;;;;;5071001;28;20195;-68
2021/07/06 10:36:58;;;;;;;1.73;1.63;;;;;;;;;;5070833;28;20206;-67
2021/07/06 10:39:45;;;;;;;4.03;1.97;;;;;;;;;;5071178;28;20198;-68
2021/07/06 10:42:15;;;;;;;4.27;2.00;;;;;;;;;;5068707;28;20289;-68
2021/07/06 10:44:43;;;;;;;1.67;1.43;;;;;;;;;;5067643;28;20214;-68
2021/07/06 10:47:30;;;;;;;2.37;1.70;;;;;;;;;;5069718;28;20218;-68
2021/07/06 10:49:58;;;;;;;2.10;1.80;;;;;;;;;;5062470;28;20198;-68
2021/07/06 10:52:34;;;;;;;1.97;1.50;;;;;;;;;;5071368;28;20799;-69
2021/07/06 10:55:17;;;;;;;2.80;1.50;;;;;;;;;;5071610;28;20225;-69
2021/07/06 10:57:49;;;;;;;3.43;2.03;;;;;;;;;;5072633;28;20812;-69
2021/07/06 11:00:17;;;;;;;2.67;2.13;;;;;;;;;;5067196;28;20241;-69
2021/07/06 11:02:45;;;;;;;4.87;1.87;;;;;;;;;;5070666;28;20279;-65
2021/07/06 11:05:13;;;;;;;1.80;1.50;;;;;;;;;;5075797;28;20237;-66
2021/07/06 11:07:53;;;;;;;2.97;1.60;;;;;;;;;;5072274;28;20198;-66
2021/07/06 11:10:36;;;;;;;2.43;1.60;;;;;;;;;;5070655;28;20206;-66
2021/07/06 11:13:28;;;;;;;1.57;1.47;;;;;;;;;;5072297;28;20681;-65
2021/07/06 11:16:02;;;;;;;3.07;1.80;;;;;;;;;;5063849;28;20241;-66
2021/07/06 11:18:34;;;;;;;2.83;1.67;;;;;;;;;;5067159;28;20210;-65
2021/07/06 11:21:02;;;;;;;2.10;1.53;;;;;;;;;;5068465;28;20206;-67
2021/07/06 11:23:33;;;;;;;3.20;1.30;;;;;;;;;;5072562;28;20202;-64
2021/07/06 11:26:02;;;;;;;2.30;1.60;;;;;;;;;;5073184;28;20206;-64
2021/07/06 11:28:29;;;;;;;4.57;1.87;;;;;;;;;;5073408;28;20199;-67
2021/07/06 11:31:00;;;;;;;3.03;2.17;;;;;;;;;;5073385;28;20209;-64
2021/07/06 11:33:37;;;;;;;1.70;1.60;;;;;;;;;;5070143;28;20237;-65
2021/07/06 11:36:05;;;;;;;1.90;1.80;;;;;;;;;;5070522;28;20255;-66
2021/07/06 11:38:38;;;;;;;2.30;1.93;;;;;;;;;;5076153;28;20715;-66
2021/07/06 11:41:07;;;;;;;3.70;2.30;;;;;;;;;;5077221;28;20206;-65
2021/07/06 11:43:36;;;;;;;2.50;1.50;;;;;;;;;;5077651;28;20595;-65
2021/07/06 11:46:06;;;;;;;1.43;1.33;;;;;;;;;;5078042;28;20592;-66
2021/07/06 11:48:36;;;;;;;2.00;1.60;;;;;;;;;;5074342;28;20207;-66
2021/07/06 11:51:04;;;;;;;1.63;1.53;;;;;;;;;;5069670;28;20214;-66
2021/07/06 11:53:34;;;;;;;2.17;1.50;;;;;;;;;;5071564;28;20299;-67
2021/07/06 11:56:03;;;;;;;1.57;1.47;;;;;;;;;;5068967;28;20596;-67
2021/07/06 11:58:32;;;;;;;1.60;1.50;;;;;;;;;;5073569;28;20604;-67
2021/07/06 12:01:00;;;;;;;2.60;1.37;;;;;;;;;;5075669;28;20662;-66
2021/07/06 12:03:30;;;;;;;1.20;1.20;;;;;;;;;;5073171;28;20654;-67
2021/07/06 12:05:58;;;;;;;2.27;1.10;;;;;;;;;;5069056;28;20241;-67
2021/07/06 12:08:27;;;;;;;1.40;1.30;;;;;;;;;;5073990;28;20283;-67
2021/07/06 12:10:56;;;;;;;2.83;1.87;;;;;;;;;;5076858;28;20723;-66
2021/07/06 12:13:24;;;;;;;2.53;2.10;;;;;;;;;;5072722;28;20241;-67
2021/07/06 12:15:54;;;;;;;3.33;1.40;;;;;;;;;;5074801;28;20202;-67
2021/07/06 12:18:22;;;;;;;2.97;2.07;;;;;;;;;;5073717;28;20211;-65
2021/07/06 12:20:55;;;;;;;4.57;1.40;;;;;;;;;;5068779;28;20456;-66
2021/07/06 12:23:24;;;;;;;2.73;1.50;;;;;;;;;;5076227;28;20655;-66
2021/07/06 12:25:53;;;;;;;2.47;1.47;;;;;;;;;;5068743;28;20226;-66
2021/07/06 12:28:21;;;;;;;2.77;1.53;;;;;;;;;;5075585;28;20653;-67
2021/07/06 12:31:08;;;;;;;1.70;1.50;;;;;;;;;;5071775;28;20210;-67
2021/07/06 12:33:35;;;;;;;1.87;1.47;;;;;;;;;;5073505;28;20385;-65
2021/07/06 12:36:05;;;;;;;2.23;1.27;;;;;;;;;;5073242;28;20244;-65
2021/07/06 12:38:32;;;;;;;4.50;1.50;;;;;;;;;;5067600;28;20206;-64
2021/07/06 12:41:00;;;;;;;2.27;1.70;;;;;;;;;;5068937;28;20206;-66
2021/07/06 12:43:28;;;;;;;3.20;1.40;;;;;;;;;;5066806;28;20207;-65
2021/07/06 12:46:05;;;;;;;2.33;1.37;;;;;;;;;;5070108;28;20214;-65
2021/07/06 12:48:35;;;;;;;1.53;1.27;;;;;;;;;;5070249;28;20231;-65
2021/07/06 12:51:10;;;;;;;1.50;1.30;;;;;;;;;;5073906;28;20696;-65
2021/07/06 12:53:38;;;;;;;1.40;1.30;;;;;;;;;;5072705;28;20563;-66
2021/07/06 12:56:21;;;;;;;2.07;1.50;;;;;;;;;;5068980;28;20207;-65
2021/07/06 12:58:48;;;;;;;1.67;1.33;;;;;;;;;;5071524;28;20202;-65
2021/07/06 13:01:31;;;;;;;1.40;1.33;;;;;;;;;;5073586;28;20279;-65
2021/07/06 13:03:59;;;;;;;1.30;1.20;;;;;;;;;;5071863;28;20201;-65
2021/07/06 13:06:28;;;;;;;1.10;1.10;;;;;;;;;;5073625;28;20695;-64
2021/07/06 13:09:10;;;;;;;1.00;1.00;;;;;;;;;;5076612;28;20542;-65
2021/07/06 13:11:38;;;;;;;2.03;1.87;;;;;;;;;;5073352;28;20223;-65
2021/07/06 13:14:16;;;;;;;2.87;1.40;;;;;;;;;;5072029;28;20202;-64
2021/07/06 13:16:44;;;;;;;7.20;1.73;;;;;;;;;;5073344;28;20253;-65
2021/07/06 13:19:19;;;;;;;4.23;1.20;;;;;;;;;;5075457;28;20210;-64
2021/07/06 13:21:48;;;;;;;3.30;1.70;;;;;;;;;;5073819;28;20229;-65
2021/07/06 13:24:16;;;;;;;3.07;1.90;;;;;;;;;;5075393;28;20720;-64
2021/07/06 13:26:44;;;;;;;2.33;1.20;;;;;;;;;;5074049;28;20269;-64
2021/07/06 13:29:12;;;;;;;1.47;1.37;;;;;;;;;;5070765;28;20210;-65
2021/07/06 13:31:42;;;;;;;1.23;1.13;;;;;;;;;;5067644;28;20279;-65
2021/07/06 13:34:10;;;;;;;2.47;1.53;;;;;;;;;;5069459;28;20559;-65
2021/07/06 13:36:38;;;;;;;2.80;1.07;;;;;;;;;;5069370;28;20199;-64
2021/07/06 13:39:09;;;;;;;1.03;1.03;;;;;;;;;;5067315;28;20256;-64
2021/07/06 13:41:37;;;;;;;1.73;1.33;;;;;;;;;;5065660;28;20214;-64
2021/07/06 13:44:05;;;;;;;1.73;1.20;;;;;;;;;;5072520;28;20206;-64
2021/07/06 13:46:32;;;;;;;4.33;1.60;;;;;;;;;;5070095;28;20355;-64
2021/07/06 13:49:00;;;;;;;1.50;1.00;;;;;;;;;;5070383;28;20676;-64
2021/07/06 13:51:28;;;;;;;1.17;1.07;;;;;;;;;;5068912;28;20569;-64
2021/07/06 13:53:58;;;;;;;3.27;1.40;;;;;;;;;;5069163;28;20202;-64
2021/07/06 13:56:28;;;;;;;6.80;2.33;;;;;;;;;;5063075;28;20195;-63
2021/07/06 13:58:55;;;;;;;3.17;1.33;;;;;;;;;;5069115;28;20211;-64
2021/07/06 14:01:23;;;;;;;0.97;0.97;;;;;;;;;;5073341;28;20230;-63
2021/07/06 14:03:51;;;;;;;4.23;1.67;;;;;;;;;;5072005;28;20259;-64
2021/07/06 14:06:19;;;;;;;1.33;0.93;;;;;;;;;;5075192;28;20226;-64
2021/07/06 14:08:47;;;;;;;1.53;1.17;;;;;;;;;;5070338;28;20259;-64
2021/07/06 14:11:15;;;;;;;0.80;0.80;;;;;;;;;;5072340;28;20206;-64
2021/07/06 14:13:44;;;;;;;2.30;1.00;;;;;;;;;;5073644;28;20241;-64
2021/07/06 14:16:31;;;;;;;2.13;1.10;;;;;;;;;;5071488;28;20237;-64
2021/07/06 14:18:59;;;;;;;1.23;0.93;;;;;;;;;;5071781;28;20206;-64
2021/07/06 14:21:27;;;;;;;1.37;1.03;;;;;;;;;;5070591;28;20267;-64
2021/07/06 14:23:55;;;;;;;2.30;1.30;;;;;;;;;;5071718;28;20199;-64
2021/07/06 14:26:23;;;;;;;0.90;0.90;;;;;;;;;;5076305;28;20226;-63
2021/07/06 14:28:53;;;;;;;2.03;1.27;;;;;;;;;;5069564;28;20981;-65
2021/07/06 14:31:21;;;;;;;2.77;1.60;;;;;;;;;;5069315;28;20568;-64
2021/07/06 14:33:49;;;;;;;1.10;1.00;;;;;;;;;;5066551;28;20239;-64
2021/07/06 14:36:17;;;;;;;1.07;1.07;;;;;;;;;;5070310;28;20205;-64
2021/07/06 14:38:45;;;;;;;4.67;1.50;;;;;;;;;;5068548;28;20198;-64
2021/07/06 14:41:14;;;;;;;1.23;1.10;;;;;;;;;;5071593;28;20625;-64
2021/07/06 14:43:42;;;;;;;2.53;2.00;;;;;;;;;;5067653;28;20567;-63
2021/07/06 14:46:11;;;;;;;1.90;1.10;;;;;;;;;;5069496;28;20223;-64
2021/07/06 14:48:39;;;;;;;1.97;1.40;;;;;;;;;;5068184;28;20207;-63
2021/07/06 14:51:07;;;;;;;1.90;1.10;;;;;;;;;;5066756;28;20252;-63
2021/07/06 14:53:35;;;;;;;1.60;1.43;;;;;;;;;;5072748;28;20209;-65
2021/07/06 14:56:03;;;;;;;1.67;1.47;;;;;;;;;;5071694;28;20812;-65